In Rescue
 
Open Full Screen Window  High Contrast Mode
Wind Gusting 00 knots
03
June 26, 2019 10:41 PM EDT
Weather Information
Wind Direction
  200 °
Wind Speed
  03 kt (3 mph)
Wind Gust
  00 kt (0 mph)
Altimeter
30.14 in
Visibility
10 SM
Temperature
24° C
75° F
Dewpoint
19° C
66° F
Humidity
74%
1hr Rain Fall
00.00 in.
24hr Rain Fall
00.00 in.
Sky Condition
Clear
VFR

METAR KMRT 270241Z AUTO 20003KT 10SM CLR 24/19 A3014 RMK AO2 T02440193

FAA Disclaimer: The data displayed is for advisory purposes only and is not to be used for flight planning or operations.